createdAt,value
2022-09-11T00:00:44.458Z,31.55
2022-09-11T00:03:48.251Z,34.08
2022-09-11T00:06:51.613Z,39.55
2022-09-11T00:09:54.984Z,40.58
2022-09-11T00:12:58.678Z,45.28
2022-09-11T00:16:05.814Z,40.00
2022-09-11T00:19:12.279Z,39.03
2022-09-11T00:22:15.778Z,36.70
2022-09-11T00:25:19.050Z,34.50
2022-09-11T00:28:23.779Z,36.20
2022-09-11T00:31:30.333Z,39.22
2022-09-11T00:34:34.610Z,37.60
2022-09-11T00:37:38.244Z,34.80
2022-09-11T00:40:47.600Z,38.05
2022-09-11T00:43:55.312Z,29.58
2022-09-11T00:47:02.260Z,38.95
2022-09-11T00:50:13.480Z,37.05
2022-09-11T00:53:18.485Z,42.83
2022-09-11T00:56:23.055Z,46.78
2022-09-11T00:59:28.173Z,49.30
2022-09-11T01:02:36.377Z,44.58
2022-09-11T01:05:43.463Z,53.83
2022-09-11T01:08:46.667Z,50.10
2022-09-11T01:11:59.390Z,52.80
2022-09-11T01:15:05.867Z,56.28
2022-09-11T01:18:20.049Z,55.30
2022-09-11T01:21:42.490Z,58.17
2022-09-11T01:25:02.155Z,57.13
2022-09-11T01:28:13.797Z,54.97
2022-09-11T01:31:21.526Z,61.47
2022-09-11T01:34:31.752Z,69.70
2022-09-11T01:37:41.794Z,78.13
2022-09-11T01:40:51.364Z,73.70
2022-09-11T01:44:03.630Z,82.50
2022-09-11T01:47:11.207Z,88.30
2022-09-11T01:50:18.168Z,88.20
2022-09-11T01:53:25.719Z,106.35
2022-09-11T01:56:34.023Z,93.78
2022-09-11T01:59:44.034Z,82.47
2022-09-11T02:02:52.413Z,97.85
2022-09-11T02:05:59.968Z,91.20
2022-09-11T02:09:07.197Z,90.50
2022-09-11T02:12:14.279Z,85.13
2022-09-11T02:15:19.640Z,80.88
2022-09-11T02:18:26.883Z,76.82
2022-09-11T02:21:31.012Z,72.15
2022-09-11T02:24:34.486Z,76.63
2022-09-11T02:27:37.727Z,69.43
2022-09-11T02:30:44.657Z,68.50
2022-09-11T02:33:48.811Z,76.10
2022-09-11T02:37:05.319Z,82.05
2022-09-11T02:40:27.958Z,87.63
2022-09-11T02:43:47.423Z,87.63
2022-09-11T02:47:10.456Z,100.32
2022-09-11T02:50:24.587Z,97.57
2022-09-11T02:53:38.714Z,108.60
2022-09-11T02:56:47.684Z,114.13
2022-09-11T02:59:54.966Z,102.57
2022-09-11T03:03:00.054Z,98.32
2022-09-11T03:06:03.452Z,105.13
2022-09-11T03:09:07.535Z,96.43
2022-09-11T03:12:11.491Z,93.47
2022-09-11T03:15:16.746Z,90.55
2022-09-11T03:18:21.591Z,91.05
2022-09-11T03:21:24.854Z,86.30
2022-09-11T03:24:28.103Z,79.68
2022-09-11T03:27:31.312Z,80.20
2022-09-11T03:30:36.425Z,83.93
2022-09-11T03:33:41.807Z,76.47
2022-09-11T03:36:48.202Z,80.82
2022-09-11T03:39:53.119Z,73.97
2022-09-11T03:42:59.567Z,68.25
2022-09-11T03:46:03.414Z,71.05
2022-09-11T03:49:09.875Z,69.97
2022-09-11T03:52:13.353Z,70.45
2022-09-11T03:55:16.888Z,72.97
2022-09-11T03:58:20.539Z,70.53
2022-09-11T04:01:24.196Z,69.53
2022-09-11T04:04:29.930Z,74.53
2022-09-11T04:07:34.632Z,62.40
2022-09-11T04:10:38.340Z,66.68
2022-09-11T04:13:43.837Z,63.65
2022-09-11T04:16:50.389Z,58.47
2022-09-11T04:19:55.553Z,53.90
2022-09-11T04:22:58.986Z,54.95
2022-09-11T04:26:02.692Z,53.35
2022-09-11T04:29:05.959Z,54.92
2022-09-11T04:32:11.634Z,55.40
2022-09-11T04:35:19.093Z,55.78
2022-09-11T04:38:29.756Z,55.08
2022-09-11T04:41:33.275Z,54.08
2022-09-11T04:44:39.146Z,50.20
2022-09-11T04:47:44.081Z,45.17
2022-09-11T04:50:50.818Z,46.08
2022-09-11T04:54:00.760Z,42.08
2022-09-11T04:57:10.974Z,48.90
2022-09-11T05:00:16.498Z,37.92
2022-09-11T05:03:20.921Z,36.20
2022-09-11T05:06:25.472Z,37.13
2022-09-11T05:09:29.853Z,37.38
2022-09-11T05:12:34.771Z,37.00
2022-09-11T05:15:38.424Z,39.60
2022-09-11T05:18:43.359Z,33.95
2022-09-11T05:21:49.227Z,36.08
2022-09-11T05:24:52.856Z,39.75
2022-09-11T05:27:56.083Z,34.53
2022-09-11T05:31:00.749Z,37.05
2022-09-11T05:34:05.305Z,35.90
2022-09-11T05:37:10.944Z,34.03
2022-09-11T05:43:22.655Z,29.38
2022-09-11T05:46:27.678Z,39.42
2022-09-11T05:49:34.884Z,30.25
2022-09-11T05:52:41.005Z,32.20
2022-09-11T05:55:44.816Z,27.00
2022-09-11T05:58:51.639Z,26.15
2022-09-11T06:01:56.830Z,17.80
2022-09-11T06:05:13.788Z,12.93
2022-09-11T06:08:19.554Z,11.05
2022-09-11T06:11:23.360Z,10.65
2022-09-11T06:14:28.265Z,11.43
2022-09-11T06:17:32.064Z,10.55
2022-09-11T06:20:35.516Z,9.77
2022-09-11T06:23:40.850Z,10.98
2022-09-11T06:26:46.619Z,9.82
2022-09-11T06:29:50.954Z,11.40
2022-09-11T06:32:57.721Z,11.00
2022-09-11T06:36:04.078Z,10.45
2022-09-11T06:39:08.950Z,12.25
2022-09-11T06:42:12.436Z,17.65
2022-09-11T06:45:15.903Z,15.55
2022-09-11T06:48:20.214Z,9.57
2022-09-11T06:51:24.491Z,17.58
2022-09-11T06:54:30.810Z,8.68
2022-09-11T06:57:39.883Z,8.60
2022-09-11T07:00:48.715Z,9.27
2022-09-11T07:03:54.108Z,7.20
2022-09-11T07:06:57.852Z,9.40
2022-09-11T07:10:04.365Z,7.65
2022-09-11T07:13:08.996Z,7.15
2022-09-11T07:16:13.675Z,6.20
2022-09-11T07:19:19.467Z,5.60
2022-09-11T07:22:22.789Z,6.20
2022-09-11T07:25:28.332Z,5.97
2022-09-11T07:28:34.500Z,6.72
2022-09-11T07:31:42.969Z,6.22
2022-09-11T07:34:49.505Z,9.30
2022-09-11T07:37:54.496Z,10.73
2022-09-11T07:41:09.751Z,6.63
2022-09-11T07:44:14.403Z,6.50
2022-09-11T07:47:18.357Z,7.53
2022-09-11T07:50:25.658Z,6.38
2022-09-11T07:53:29.642Z,9.10
2022-09-11T07:56:36.245Z,6.40
2022-09-11T07:59:42.238Z,5.90
2022-09-11T08:02:46.055Z,5.80
2022-09-11T08:05:49.580Z,6.18
2022-09-11T08:08:55.345Z,5.57
2022-09-11T08:12:03.380Z,4.75
2022-09-11T08:15:10.100Z,6.85
2022-09-11T08:18:13.947Z,5.70
2022-09-11T08:21:18.360Z,6.63
2022-09-11T08:24:21.938Z,11.20
2022-09-11T08:27:29.353Z,32.03
2022-09-11T08:30:33.699Z,5.13
2022-09-11T08:33:37.383Z,5.03
2022-09-11T08:36:43.676Z,5.35
2022-09-11T08:39:47.945Z,6.38
2022-09-11T08:42:56.784Z,4.90
2022-09-11T08:46:05.588Z,5.47
2022-09-11T08:49:20.220Z,4.57
2022-09-11T08:52:24.092Z,5.15
2022-09-11T08:55:34.929Z,8.90
2022-09-11T08:58:52.983Z,7.90
2022-09-11T09:02:08.756Z,5.05
2022-09-11T09:05:21.356Z,7.65
2022-09-11T09:08:46.462Z,6.80
2022-09-11T09:11:56.129Z,8.82
2022-09-11T09:15:17.820Z,9.93
2022-09-11T09:18:30.903Z,12.82
2022-09-11T09:21:42.221Z,14.77
2022-09-11T09:24:50.823Z,17.65
2022-09-11T09:28:00.522Z,16.50
2022-09-11T09:31:10.482Z,16.40
2022-09-11T09:34:19.863Z,14.50
2022-09-11T09:42:44.464Z,15.60
2022-09-11T09:46:10.854Z,13.02
2022-09-11T09:49:19.892Z,19.05
2022-09-11T09:52:25.504Z,12.90
2022-09-11T09:55:28.912Z,12.57
2022-09-11T09:58:36.463Z,15.57
2022-09-11T10:01:52.491Z,17.33
2022-09-11T10:05:08.674Z,13.02
2022-09-11T10:08:31.428Z,14.65
2022-09-11T10:11:34.871Z,10.05
2022-09-11T10:14:51.734Z,12.73
2022-09-11T10:18:22.201Z,13.60
2022-09-11T10:21:30.358Z,14.05
2022-09-11T10:24:34.300Z,15.77
2022-09-11T10:27:44.989Z,16.02
2022-09-11T10:31:00.294Z,13.57
2022-09-11T10:34:06.239Z,13.73
2022-09-11T10:37:23.577Z,14.45
2022-09-11T10:40:27.436Z,144.75
2022-09-11T10:43:38.338Z,17.80
2022-09-11T10:46:43.170Z,15.75
2022-09-11T10:49:48.445Z,16.02
2022-09-11T10:53:05.434Z,17.38
2022-09-11T10:56:11.016Z,17.85
2022-09-11T10:59:20.662Z,13.10
2022-09-11T11:02:32.009Z,12.30
2022-09-11T11:05:48.328Z,13.65
2022-09-11T11:09:19.071Z,18.45
2022-09-11T11:12:34.729Z,15.23
2022-09-11T11:15:52.662Z,18.95
2022-09-11T11:19:18.400Z,18.17
2022-09-11T11:22:37.517Z,17.50
2022-09-11T11:25:51.096Z,16.90
2022-09-11T11:29:19.286Z,14.65
2022-09-11T11:32:43.559Z,17.13
2022-09-11T11:36:10.869Z,16.73
2022-09-11T11:39:33.466Z,14.88
2022-09-11T11:42:44.504Z,17.17
2022-09-11T11:45:52.315Z,14.18
2022-09-11T11:49:07.449Z,14.63
2022-09-11T11:52:27.490Z,13.90
2022-09-11T11:55:54.691Z,12.98
2022-09-11T11:59:07.572Z,11.68
2022-09-11T12:02:25.753Z,14.25
2022-09-11T12:05:37.259Z,14.32
2022-09-11T12:08:52.570Z,12.68
2022-09-11T12:12:06.833Z,13.30
2022-09-11T12:15:24.515Z,14.65
2022-09-11T12:18:39.042Z,17.98
2022-09-11T12:22:26.882Z,12.43
2022-09-11T12:26:19.471Z,12.02
2022-09-11T12:30:13.628Z,10.05
2022-09-11T12:33:52.398Z,12.30
2022-09-11T12:37:00.768Z,11.27
2022-09-11T12:40:21.532Z,12.38
2022-09-11T12:43:48.040Z,11.38
2022-09-11T12:47:23.452Z,14.77
2022-09-11T12:50:31.543Z,16.20
2022-09-11T12:53:43.843Z,13.35
2022-09-11T12:56:55.352Z,12.95
2022-09-11T13:00:03.770Z,15.18
2022-09-11T13:03:22.105Z,14.82
2022-09-11T13:06:38.588Z,19.10
2022-09-11T13:09:48.003Z,13.10
2022-09-11T13:13:53.168Z,15.57
2022-09-11T13:21:14.937Z,20.48
2022-09-11T13:24:31.022Z,20.23
2022-09-11T13:27:53.146Z,17.75
2022-09-11T13:31:13.136Z,17.63
2022-09-11T13:34:35.422Z,14.95
2022-09-11T13:37:49.943Z,16.20
2022-09-11T13:40:59.901Z,16.35
2022-09-11T13:44:50.596Z,15.07
2022-09-11T13:47:54.854Z,17.27
2022-09-11T13:51:13.770Z,19.15
2022-09-11T13:54:31.124Z,17.58
2022-09-11T13:57:36.063Z,16.73
2022-09-11T14:00:52.206Z,16.05
2022-09-11T14:07:35.323Z,19.80
2022-09-11T14:10:52.818Z,19.02
2022-09-11T14:14:09.823Z,19.90
2022-09-11T14:17:23.566Z,22.45
2022-09-11T14:20:31.422Z,20.73
2022-09-11T14:23:52.166Z,17.92
2022-09-11T14:27:08.983Z,19.70
2022-09-11T14:30:41.791Z,18.08
2022-09-11T14:33:47.492Z,21.42
2022-09-11T14:36:57.797Z,18.85
2022-09-11T14:40:15.337Z,21.38
2022-09-11T14:43:25.400Z,19.23
2022-09-11T14:46:29.166Z,20.95
2022-09-11T14:49:52.247Z,19.05
2022-09-11T14:52:57.103Z,23.33
2022-09-11T14:56:09.415Z,18.25
2022-09-11T14:59:14.144Z,18.15
2022-09-11T15:02:46.487Z,21.08
2022-09-11T15:06:12.939Z,22.23
2022-09-11T15:09:16.680Z,25.67
2022-09-11T15:17:06.691Z,27.33
2022-09-11T15:20:15.813Z,29.05
2022-09-11T15:23:53.876Z,20.83
2022-09-11T15:27:06.010Z,20.50
2022-09-11T15:30:19.656Z,24.07
2022-09-11T15:33:57.291Z,25.92
2022-09-11T15:37:10.049Z,33.65
2022-09-11T15:40:26.171Z,27.15
2022-09-11T15:43:46.789Z,26.33
2022-09-11T15:47:05.875Z,31.98
2022-09-11T15:50:11.091Z,26.02
2022-09-11T15:53:35.992Z,30.25
2022-09-11T15:56:40.202Z,22.77
2022-09-11T15:59:53.309Z,26.70
2022-09-11T16:03:03.865Z,24.77
2022-09-11T16:06:09.328Z,23.35
2022-09-11T16:09:15.643Z,27.83
2022-09-11T16:12:22.617Z,38.78
2022-09-11T16:15:29.785Z,32.00
2022-09-11T16:18:40.764Z,32.53
2022-09-11T16:21:47.180Z,27.50
2022-09-11T16:24:55.117Z,22.05
2022-09-11T16:28:04.035Z,32.28
2022-09-11T16:31:13.555Z,92.60
2022-09-11T16:34:20.802Z,40.38
2022-09-11T16:37:26.107Z,21.38
2022-09-11T16:40:31.947Z,18.27
2022-09-11T16:44:06.237Z,17.60
2022-09-11T16:47:10.257Z,19.63
2022-09-11T16:51:01.102Z,21.13
2022-09-11T16:54:08.690Z,24.55
2022-09-11T16:57:14.095Z,21.52
2022-09-11T17:00:19.199Z,19.05
2022-09-11T17:03:23.770Z,21.45
2022-09-11T17:06:32.555Z,19.77
2022-09-11T17:09:40.000Z,18.88
2022-09-11T17:12:47.288Z,21.85
2022-09-11T17:15:51.783Z,24.38
2022-09-11T17:19:03.437Z,20.55
2022-09-11T17:22:25.656Z,18.15
2022-09-11T17:25:40.528Z,21.83
2022-09-11T17:28:46.551Z,21.83
2022-09-11T17:32:01.149Z,79.55
2022-09-11T17:35:14.771Z,24.65
2022-09-11T17:38:19.640Z,22.70
2022-09-11T17:41:29.109Z,20.67
2022-09-11T17:44:32.739Z,17.85
2022-09-11T17:47:36.849Z,18.83
2022-09-11T17:50:40.369Z,18.00
2022-09-11T17:53:50.238Z,15.05
2022-09-11T17:56:59.147Z,18.02
2022-09-11T18:00:03.797Z,16.08
2022-09-11T18:03:28.919Z,15.38
2022-09-11T18:06:41.071Z,17.08
2022-09-11T18:09:52.905Z,15.05
2022-09-11T18:13:00.646Z,16.33
2022-09-11T18:16:17.947Z,16.98
2022-09-11T18:19:34.787Z,18.98
2022-09-11T18:22:44.715Z,18.52
2022-09-11T18:25:49.942Z,19.67
2022-09-11T18:29:13.590Z,19.50
2022-09-11T18:32:19.927Z,14.70
2022-09-11T18:35:30.469Z,24.38
2022-09-11T18:38:54.430Z,18.33
2022-09-11T18:42:07.952Z,14.70
2022-09-11T18:45:48.567Z,15.20
2022-09-11T18:49:00.335Z,14.88
2022-09-11T18:52:07.558Z,16.05
2022-09-11T18:55:20.278Z,17.98
2022-09-11T18:58:33.161Z,17.35
2022-09-11T19:01:39.363Z,15.70
2022-09-11T19:04:49.677Z,16.02
2022-09-11T19:08:00.218Z,18.45
2022-09-11T19:11:09.557Z,16.63
2022-09-11T19:14:14.952Z,16.70
2022-09-11T19:17:18.819Z,16.48
2022-09-11T19:20:22.548Z,15.02
2022-09-11T19:23:31.549Z,17.15
2022-09-11T19:26:38.262Z,17.48
2022-09-11T19:29:44.936Z,15.50
2022-09-11T19:32:49.043Z,16.17
2022-09-11T19:35:57.441Z,12.85
2022-09-11T19:39:01.723Z,14.82
2022-09-11T19:42:05.958Z,14.05
2022-09-11T19:45:11.840Z,15.15
2022-09-11T19:48:16.016Z,14.25
2022-09-11T19:51:22.234Z,17.65
2022-09-11T19:54:25.716Z,15.02
2022-09-11T19:57:31.285Z,13.43
2022-09-11T20:00:39.405Z,18.92
2022-09-11T20:03:44.629Z,15.45
2022-09-11T20:09:50.904Z,14.35
2022-09-11T20:12:54.746Z,15.75
2022-09-11T20:16:03.909Z,16.10
2022-09-11T20:19:07.337Z,15.82
2022-09-11T20:22:10.711Z,15.60
2022-09-11T20:25:14.127Z,16.92
2022-09-11T20:28:17.380Z,16.73
2022-09-11T20:31:23.993Z,17.75
2022-09-11T20:34:28.214Z,13.45
2022-09-11T20:37:31.590Z,18.17
2022-09-11T20:40:34.864Z,19.92
2022-09-11T20:43:38.280Z,14.93
2022-09-11T20:46:43.777Z,14.80
2022-09-11T20:49:47.262Z,18.45
2022-09-11T20:52:50.609Z,14.18
2022-09-11T20:55:53.840Z,12.50
2022-09-11T20:58:57.511Z,14.32
2022-09-11T21:02:02.315Z,15.57
2022-09-11T21:05:06.565Z,13.35
2022-09-11T21:08:09.833Z,15.43
2022-09-11T21:11:13.835Z,15.82
2022-09-11T21:14:18.180Z,13.15
2022-09-11T21:17:22.905Z,14.65
2022-09-11T21:20:26.333Z,18.75
2022-09-11T21:23:30.113Z,16.85
2022-09-11T21:26:34.596Z,21.67
2022-09-11T21:29:38.203Z,21.33
2022-09-11T21:32:42.921Z,23.15
2022-09-11T21:35:52.423Z,21.23
2022-09-11T21:38:55.842Z,19.93
2022-09-11T21:41:59.197Z,22.30
2022-09-11T21:45:02.425Z,22.88
2022-09-11T21:48:07.107Z,18.98
2022-09-11T21:51:12.115Z,25.08
2022-09-11T21:54:15.299Z,18.60
2022-09-11T21:57:18.494Z,20.85
2022-09-11T22:00:22.393Z,20.50
2022-09-11T22:03:27.191Z,19.48
2022-09-11T22:06:31.657Z,16.88
2022-09-11T22:09:35.325Z,18.70
2022-09-11T22:12:38.496Z,18.52
2022-09-11T22:15:41.925Z,16.38
2022-09-11T22:18:49.582Z,16.58
2022-09-11T22:21:52.728Z,16.38
2022-09-11T22:24:55.948Z,21.77
2022-09-11T22:27:59.215Z,18.17
2022-09-11T22:31:10.166Z,17.85
2022-09-11T22:34:14.877Z,21.10
2022-09-11T22:37:18.065Z,13.32
2022-09-11T22:40:21.255Z,14.95
2022-09-11T22:43:24.591Z,17.73
2022-09-11T22:46:27.906Z,13.65
2022-09-11T22:49:32.423Z,17.75
2022-09-11T22:52:37.324Z,17.85
2022-09-11T22:55:44.814Z,17.35
2022-09-11T22:58:48.735Z,13.43
2022-09-11T23:01:52.142Z,15.15
2022-09-11T23:05:14.192Z,19.15
2022-09-11T23:08:17.388Z,14.45
2022-09-11T23:11:22.022Z,14.98
2022-09-11T23:14:25.185Z,20.83
2022-09-11T23:17:28.363Z,13.75
2022-09-11T23:20:33.863Z,17.30
2022-09-11T23:23:40.923Z,16.63
2022-09-11T23:26:45.253Z,15.13
2022-09-11T23:29:48.598Z,17.65
2022-09-11T23:32:54.028Z,16.48
2022-09-11T23:35:58.622Z,15.40
2022-09-11T23:39:02.244Z,17.52
2022-09-11T23:42:05.704Z,16.13
2022-09-11T23:45:10.595Z,16.33
2022-09-11T23:48:13.762Z,22.40
2022-09-11T23:51:18.624Z,18.10
2022-09-11T23:54:21.994Z,17.48
2022-09-11T23:57:25.159Z,16.48
